sensor_id;sensor_type;location;lat;lon;timestamp;P1;durP1;ratioP1;P2;durP2;ratioP2
74808;SDS011;63338;39.544;2.596;2023-10-13T00:00:38;11.05;;;6.22;;
74808;SDS011;63338;39.544;2.596;2023-10-13T00:03:07;12.90;;;6.63;;
74808;SDS011;63338;39.544;2.596;2023-10-13T00:05:40;10.68;;;6.53;;
74808;SDS011;63338;39.544;2.596;2023-10-13T00:08:08;12.13;;;6.40;;
74808;SDS011;63338;39.544;2.596;2023-10-13T00:10:34;11.73;;;6.40;;
74808;SDS011;63338;39.544;2.596;2023-10-13T00:13:01;12.60;;;6.82;;
74808;SDS011;63338;39.544;2.596;2023-10-13T00:15:44;12.40;;;6.55;;
74808;SDS011;63338;39.544;2.596;2023-10-13T00:18:34;12.38;;;5.90;;
74808;SDS011;63338;39.544;2.596;2023-10-13T00:21:00;17.58;;;7.03;;
74808;SDS011;63338;39.544;2.596;2023-10-13T00:23:41;11.63;;;6.40;;
74808;SDS011;63338;39.544;2.596;2023-10-13T00:26:22;13.57;;;6.18;;
74808;SDS011;63338;39.544;2.596;2023-10-13T00:28:56;12.98;;;6.47;;
74808;SDS011;63338;39.544;2.596;2023-10-13T00:31:32;10.85;;;6.72;;
74808;SDS011;63338;39.544;2.596;2023-10-13T00:34:01;12.27;;;6.15;;
74808;SDS011;63338;39.544;2.596;2023-10-13T00:36:38;17.10;;;6.60;;
74808;SDS011;63338;39.544;2.596;2023-10-13T00:39:14;12.23;;;5.95;;
74808;SDS011;63338;39.544;2.596;2023-10-13T00:41:43;16.85;;;6.78;;
74808;SDS011;63338;39.544;2.596;2023-10-13T00:44:23;14.07;;;6.78;;
74808;SDS011;63338;39.544;2.596;2023-10-13T00:47:09;12.85;;;6.47;;
74808;SDS011;63338;39.544;2.596;2023-10-13T00:49:42;10.85;;;5.93;;
74808;SDS011;63338;39.544;2.596;2023-10-13T00:52:13;13.00;;;6.93;;
74808;SDS011;63338;39.544;2.596;2023-10-13T00:54:44;14.35;;;6.57;;
74808;SDS011;63338;39.544;2.596;2023-10-13T00:57:14;16.30;;;6.70;;
74808;SDS011;63338;39.544;2.596;2023-10-13T00:59:56;19.08;;;7.45;;
74808;SDS011;63338;39.544;2.596;2023-10-13T01:02:23;13.60;;;6.70;;
74808;SDS011;63338;39.544;2.596;2023-10-13T01:05:04;11.32;;;6.35;;
74808;SDS011;63338;39.544;2.596;2023-10-13T01:07:38;13.18;;;6.30;;
74808;SDS011;63338;39.544;2.596;2023-10-13T01:10:04;20.42;;;7.68;;
74808;SDS011;63338;39.544;2.596;2023-10-13T01:12:39;13.98;;;7.18;;
74808;SDS011;63338;39.544;2.596;2023-10-13T01:15:09;14.63;;;6.97;;
74808;SDS011;63338;39.544;2.596;2023-10-13T01:17:37;12.02;;;6.32;;
74808;SDS011;63338;39.544;2.596;2023-10-13T01:20:03;14.30;;;7.22;;
74808;SDS011;63338;39.544;2.596;2023-10-13T01:22:31;14.30;;;7.43;;
74808;SDS011;63338;39.544;2.596;2023-10-13T01:24:58;14.85;;;7.13;;
74808;SDS011;63338;39.544;2.596;2023-10-13T01:27:39;17.33;;;7.10;;
74808;SDS011;63338;39.544;2.596;2023-10-13T01:30:06;18.38;;;7.10;;
74808;SDS011;63338;39.544;2.596;2023-10-13T01:32:35;20.10;;;7.70;;
74808;SDS011;63338;39.544;2.596;2023-10-13T01:35:10;15.75;;;7.30;;
74808;SDS011;63338;39.544;2.596;2023-10-13T01:37:36;18.10;;;7.50;;
74808;SDS011;63338;39.544;2.596;2023-10-13T01:40:03;15.20;;;8.00;;
74808;SDS011;63338;39.544;2.596;2023-10-13T01:42:29;16.30;;;7.38;;
74808;SDS011;63338;39.544;2.596;2023-10-13T01:44:56;15.23;;;7.60;;
74808;SDS011;63338;39.544;2.596;2023-10-13T01:47:31;16.98;;;7.85;;
74808;SDS011;63338;39.544;2.596;2023-10-13T01:49:58;19.27;;;7.72;;
74808;SDS011;63338;39.544;2.596;2023-10-13T01:52:38;13.18;;;7.30;;
74808;SDS011;63338;39.544;2.596;2023-10-13T01:55:07;15.85;;;8.20;;
74808;SDS011;63338;39.544;2.596;2023-10-13T01:57:36;14.48;;;7.65;;
74808;SDS011;63338;39.544;2.596;2023-10-13T02:00:02;14.35;;;7.45;;
74808;SDS011;63338;39.544;2.596;2023-10-13T02:02:44;14.45;;;7.95;;
74808;SDS011;63338;39.544;2.596;2023-10-13T02:05:11;18.17;;;8.52;;
74808;SDS011;63338;39.544;2.596;2023-10-13T02:07:37;11.75;;;7.85;;
74808;SDS011;63338;39.544;2.596;2023-10-13T02:10:04;13.82;;;6.97;;
74808;SDS011;63338;39.544;2.596;2023-10-13T02:12:31;17.00;;;7.75;;
74808;SDS011;63338;39.544;2.596;2023-10-13T02:15:13;14.90;;;7.30;;
74808;SDS011;63338;39.544;2.596;2023-10-13T02:17:47;16.08;;;7.72;;
74808;SDS011;63338;39.544;2.596;2023-10-13T02:20:17;15.45;;;7.68;;
74808;SDS011;63338;39.544;2.596;2023-10-13T02:22:43;21.75;;;8.32;;
74808;SDS011;63338;39.544;2.596;2023-10-13T02:25:18;17.75;;;8.77;;
74808;SDS011;63338;39.544;2.596;2023-10-13T02:28:03;15.75;;;7.97;;
74808;SDS011;63338;39.544;2.596;2023-10-13T02:30:39;15.75;;;8.02;;
74808;SDS011;63338;39.544;2.596;2023-10-13T02:33:14;16.20;;;8.05;;
74808;SDS011;63338;39.544;2.596;2023-10-13T02:35:46;17.27;;;8.35;;
74808;SDS011;63338;39.544;2.596;2023-10-13T02:38:22;20.50;;;8.43;;
74808;SDS011;63338;39.544;2.596;2023-10-13T02:41:04;14.02;;;7.40;;
74808;SDS011;63338;39.544;2.596;2023-10-13T02:43:44;13.93;;;7.90;;
74808;SDS011;63338;39.544;2.596;2023-10-13T02:46:10;15.20;;;8.25;;
74808;SDS011;63338;39.544;2.596;2023-10-13T02:48:36;18.45;;;8.63;;
74808;SDS011;63338;39.544;2.596;2023-10-13T02:51:11;18.42;;;8.40;;
74808;SDS011;63338;39.544;2.596;2023-10-13T02:56:12;17.08;;;8.35;;
74808;SDS011;63338;39.544;2.596;2023-10-13T02:58:39;13.52;;;7.45;;
74808;SDS011;63338;39.544;2.596;2023-10-13T03:01:11;16.98;;;8.13;;
74808;SDS011;63338;39.544;2.596;2023-10-13T03:03:44;13.93;;;8.50;;
74808;SDS011;63338;39.544;2.596;2023-10-13T03:08:49;16.58;;;7.93;;
74808;SDS011;63338;39.544;2.596;2023-10-13T03:11:17;18.27;;;8.23;;
74808;SDS011;63338;39.544;2.596;2023-10-13T03:13:49;13.73;;;7.93;;
74808;SDS011;63338;39.544;2.596;2023-10-13T03:16:17;12.10;;;8.15;;
74808;SDS011;63338;39.544;2.596;2023-10-13T03:18:46;16.25;;;8.20;;
74808;SDS011;63338;39.544;2.596;2023-10-13T03:21:22;19.23;;;8.73;;
74808;SDS011;63338;39.544;2.596;2023-10-13T03:23:55;13.77;;;7.93;;
74808;SDS011;63338;39.544;2.596;2023-10-13T03:26:32;19.23;;;8.88;;
74808;SDS011;63338;39.544;2.596;2023-10-13T03:29:03;14.95;;;8.48;;
74808;SDS011;63338;39.544;2.596;2023-10-13T03:31:33;16.88;;;8.73;;
74808;SDS011;63338;39.544;2.596;2023-10-13T03:34:03;15.05;;;8.65;;
74808;SDS011;63338;39.544;2.596;2023-10-13T03:36:34;14.40;;;8.02;;
74808;SDS011;63338;39.544;2.596;2023-10-13T03:39:36;13.60;;;8.43;;
74808;SDS011;63338;39.544;2.596;2023-10-13T03:42:02;17.17;;;8.23;;
74808;SDS011;63338;39.544;2.596;2023-10-13T03:44:31;17.15;;;8.20;;
74808;SDS011;63338;39.544;2.596;2023-10-13T03:46:57;20.55;;;9.60;;
74808;SDS011;63338;39.544;2.596;2023-10-13T03:49:34;11.32;;;7.82;;
74808;SDS011;63338;39.544;2.596;2023-10-13T03:52:03;16.35;;;8.05;;
74808;SDS011;63338;39.544;2.596;2023-10-13T03:54:31;15.52;;;8.10;;
74808;SDS011;63338;39.544;2.596;2023-10-13T03:57:00;15.45;;;8.30;;
74808;SDS011;63338;39.544;2.596;2023-10-13T03:59:29;20.13;;;8.80;;
74808;SDS011;63338;39.544;2.596;2023-10-13T04:02:01;15.38;;;8.15;;
74808;SDS011;63338;39.544;2.596;2023-10-13T04:04:29;15.48;;;7.93;;
74808;SDS011;63338;39.544;2.596;2023-10-13T04:07:13;14.20;;;8.18;;
74808;SDS011;63338;39.544;2.596;2023-10-13T04:09:59;17.40;;;8.68;;
74808;SDS011;63338;39.544;2.596;2023-10-13T04:12:45;15.63;;;8.75;;
74808;SDS011;63338;39.544;2.596;2023-10-13T04:15:30;12.07;;;7.93;;
74808;SDS011;63338;39.544;2.596;2023-10-13T04:18:08;14.93;;;9.13;;
74808;SDS011;63338;39.544;2.596;2023-10-13T04:20:59;17.88;;;8.45;;
74808;SDS011;63338;39.544;2.596;2023-10-13T04:23:33;14.52;;;8.07;;
74808;SDS011;63338;39.544;2.596;2023-10-13T04:26:19;16.23;;;8.05;;
74808;SDS011;63338;39.544;2.596;2023-10-13T04:29:01;15.18;;;8.45;;
74808;SDS011;63338;39.544;2.596;2023-10-13T04:31:36;15.63;;;7.95;;
74808;SDS011;63338;39.544;2.596;2023-10-13T04:34:24;15.55;;;8.50;;
74808;SDS011;63338;39.544;2.596;2023-10-13T04:36:53;16.25;;;8.48;;
74808;SDS011;63338;39.544;2.596;2023-10-13T04:39:36;19.58;;;8.27;;
74808;SDS011;63338;39.544;2.596;2023-10-13T04:42:05;13.02;;;7.65;;
74808;SDS011;63338;39.544;2.596;2023-10-13T04:44:39;16.45;;;8.45;;
74808;SDS011;63338;39.544;2.596;2023-10-13T04:47:14;16.33;;;8.48;;
74808;SDS011;63338;39.544;2.596;2023-10-13T04:49:43;15.90;;;9.07;;
74808;SDS011;63338;39.544;2.596;2023-10-13T04:52:12;17.77;;;8.75;;
74808;SDS011;63338;39.544;2.596;2023-10-13T04:54:52;18.65;;;9.25;;
74808;SDS011;63338;39.544;2.596;2023-10-13T04:57:24;15.07;;;8.60;;
74808;SDS011;63338;39.544;2.596;2023-10-13T05:00:12;15.38;;;8.68;;
74808;SDS011;63338;39.544;2.596;2023-10-13T05:02:45;18.33;;;8.63;;
74808;SDS011;63338;39.544;2.596;2023-10-13T05:05:50;16.23;;;9.15;;
74808;SDS011;63338;39.544;2.596;2023-10-13T05:08:38;16.67;;;9.10;;
74808;SDS011;63338;39.544;2.596;2023-10-13T05:11:23;17.00;;;9.30;;
74808;SDS011;63338;39.544;2.596;2023-10-13T05:14:07;20.52;;;9.60;;
74808;SDS011;63338;39.544;2.596;2023-10-13T05:16:52;16.58;;;9.63;;
74808;SDS011;63338;39.544;2.596;2023-10-13T05:19:36;17.02;;;9.63;;
74808;SDS011;63338;39.544;2.596;2023-10-13T05:22:20;19.17;;;9.73;;
74808;SDS011;63338;39.544;2.596;2023-10-13T05:25:05;19.13;;;9.50;;
74808;SDS011;63338;39.544;2.596;2023-10-13T05:27:49;18.42;;;9.23;;
74808;SDS011;63338;39.544;2.596;2023-10-13T05:30:34;21.58;;;9.77;;
74808;SDS011;63338;39.544;2.596;2023-10-13T05:33:18;16.65;;;10.23;;
74808;SDS011;63338;39.544;2.596;2023-10-13T05:36:03;30.40;;;11.07;;
74808;SDS011;63338;39.544;2.596;2023-10-13T05:38:54;30.80;;;12.45;;
74808;SDS011;63338;39.544;2.596;2023-10-13T05:41:39;28.23;;;11.60;;
74808;SDS011;63338;39.544;2.596;2023-10-13T05:44:23;24.50;;;11.27;;
74808;SDS011;63338;39.544;2.596;2023-10-13T05:46:58;68.85;;;23.10;;
74808;SDS011;63338;39.544;2.596;2023-10-13T05:49:43;37.95;;;13.93;;
74808;SDS011;63338;39.544;2.596;2023-10-13T05:52:18;34.03;;;12.35;;
74808;SDS011;63338;39.544;2.596;2023-10-13T05:54:45;29.00;;;12.90;;
74808;SDS011;63338;39.544;2.596;2023-10-13T05:57:30;26.88;;;11.95;;
74808;SDS011;63338;39.544;2.596;2023-10-13T06:00:15;30.13;;;12.25;;
74808;SDS011;63338;39.544;2.596;2023-10-13T06:03:00;34.00;;;12.35;;
74808;SDS011;63338;39.544;2.596;2023-10-13T06:05:45;28.38;;;12.55;;
74808;SDS011;63338;39.544;2.596;2023-10-13T06:08:33;85.15;;;30.77;;
74808;SDS011;63338;39.544;2.596;2023-10-13T06:11:18;85.55;;;40.63;;
74808;SDS011;63338;39.544;2.596;2023-10-13T06:14:02;29.45;;;15.07;;
74808;SDS011;63338;39.544;2.596;2023-10-13T06:16:47;26.42;;;13.13;;
74808;SDS011;63338;39.544;2.596;2023-10-13T06:19:31;18.45;;;10.13;;
74808;SDS011;63338;39.544;2.596;2023-10-13T06:22:16;26.40;;;11.93;;
74808;SDS011;63338;39.544;2.596;2023-10-13T06:25:00;29.10;;;12.45;;
74808;SDS011;63338;39.544;2.596;2023-10-13T06:27:45;29.92;;;12.60;;
74808;SDS011;63338;39.544;2.596;2023-10-13T06:30:29;30.52;;;11.93;;
74808;SDS011;63338;39.544;2.596;2023-10-13T06:32:55;25.38;;;11.20;;
74808;SDS011;63338;39.544;2.596;2023-10-13T06:35:23;27.35;;;10.77;;
74808;SDS011;63338;39.544;2.596;2023-10-13T06:37:50;31.73;;;10.95;;
74808;SDS011;63338;39.544;2.596;2023-10-13T06:40:16;20.67;;;9.52;;
74808;SDS011;63338;39.544;2.596;2023-10-13T06:42:55;17.98;;;9.70;;
74808;SDS011;63338;39.544;2.596;2023-10-13T06:45:37;16.52;;;6.55;;
74808;SDS011;63338;39.544;2.596;2023-10-13T06:48:04;16.15;;;6.70;;
74808;SDS011;63338;39.544;2.596;2023-10-13T06:50:30;15.57;;;6.40;;
74808;SDS011;63338;39.544;2.596;2023-10-13T06:53:04;16.38;;;5.95;;
74808;SDS011;63338;39.544;2.596;2023-10-13T06:55:30;11.60;;;4.88;;
74808;SDS011;63338;39.544;2.596;2023-10-13T06:58:08;12.30;;;5.13;;
74808;SDS011;63338;39.544;2.596;2023-10-13T07:00:42;12.52;;;4.45;;
74808;SDS011;63338;39.544;2.596;2023-10-13T07:03:18;10.77;;;4.70;;
74808;SDS011;63338;39.544;2.596;2023-10-13T07:05:45;12.40;;;4.43;;
74808;SDS011;63338;39.544;2.596;2023-10-13T07:08:14;14.02;;;4.40;;
74808;SDS011;63338;39.544;2.596;2023-10-13T07:10:55;11.18;;;4.22;;
74808;SDS011;63338;39.544;2.596;2023-10-13T07:13:34;10.35;;;4.32;;
74808;SDS011;63338;39.544;2.596;2023-10-13T07:16:04;11.35;;;4.43;;
74808;SDS011;63338;39.544;2.596;2023-10-13T07:18:38;7.47;;;3.80;;
74808;SDS011;63338;39.544;2.596;2023-10-13T07:21:10;9.85;;;4.10;;
74808;SDS011;63338;39.544;2.596;2023-10-13T07:23:37;8.55;;;3.72;;
74808;SDS011;63338;39.544;2.596;2023-10-13T07:26:04;10.25;;;3.65;;
74808;SDS011;63338;39.544;2.596;2023-10-13T07:28:36;10.43;;;3.58;;
74808;SDS011;63338;39.544;2.596;2023-10-13T07:31:11;7.97;;;3.45;;
74808;SDS011;63338;39.544;2.596;2023-10-13T07:33:38;10.10;;;4.07;;
74808;SDS011;63338;39.544;2.596;2023-10-13T07:36:07;10.65;;;3.30;;
74808;SDS011;63338;39.544;2.596;2023-10-13T07:38:44;9.77;;;3.33;;
74808;SDS011;63338;39.544;2.596;2023-10-13T07:41:17;8.40;;;3.42;;
74808;SDS011;63338;39.544;2.596;2023-10-13T07:43:47;10.82;;;3.72;;
74808;SDS011;63338;39.544;2.596;2023-10-13T07:46:14;10.75;;;3.47;;
74808;SDS011;63338;39.544;2.596;2023-10-13T07:48:40;10.32;;;3.85;;
74808;SDS011;63338;39.544;2.596;2023-10-13T07:51:07;10.45;;;3.40;;
74808;SDS011;63338;39.544;2.596;2023-10-13T07:53:44;11.43;;;3.40;;
74808;SDS011;63338;39.544;2.596;2023-10-13T07:56:14;10.73;;;3.40;;
74808;SDS011;63338;39.544;2.596;2023-10-13T07:58:45;10.70;;;3.22;;
74808;SDS011;63338;39.544;2.596;2023-10-13T08:05:01;16.50;;;3.53;;
74808;SDS011;63338;39.544;2.596;2023-10-13T08:07:30;10.30;;;3.53;;
74808;SDS011;63338;39.544;2.596;2023-10-13T08:09:59;14.82;;;3.60;;
74808;SDS011;63338;39.544;2.596;2023-10-13T08:12:26;14.35;;;3.53;;
74808;SDS011;63338;39.544;2.596;2023-10-13T08:14:53;10.70;;;3.67;;
74808;SDS011;63338;39.544;2.596;2023-10-13T08:17:36;10.88;;;3.30;;
74808;SDS011;63338;39.544;2.596;2023-10-13T08:20:03;11.88;;;3.35;;
74808;SDS011;63338;39.544;2.596;2023-10-13T08:22:37;10.60;;;3.40;;
74808;SDS011;63338;39.544;2.596;2023-10-13T08:25:04;15.57;;;3.78;;
74808;SDS011;63338;39.544;2.596;2023-10-13T08:28:12;11.40;;;3.45;;
74808;SDS011;63338;39.544;2.596;2023-10-13T08:30:56;10.70;;;3.63;;
74808;SDS011;63338;39.544;2.596;2023-10-13T08:33:22;10.95;;;3.90;;
74808;SDS011;63338;39.544;2.596;2023-10-13T08:35:56;15.18;;;4.88;;
74808;SDS011;63338;39.544;2.596;2023-10-13T08:38:50;13.20;;;4.55;;
74808;SDS011;63338;39.544;2.596;2023-10-13T08:41:16;13.45;;;4.75;;
74808;SDS011;63338;39.544;2.596;2023-10-13T08:43:46;13.57;;;4.20;;
74808;SDS011;63338;39.544;2.596;2023-10-13T08:46:29;11.73;;;3.53;;
74808;SDS011;63338;39.544;2.596;2023-10-13T08:49:05;10.73;;;3.70;;
74808;SDS011;63338;39.544;2.596;2023-10-13T08:51:48;15.90;;;3.90;;
74808;SDS011;63338;39.544;2.596;2023-10-13T08:54:31;11.07;;;3.53;;
74808;SDS011;63338;39.544;2.596;2023-10-13T08:57:04;9.43;;;3.20;;
74808;SDS011;63338;39.544;2.596;2023-10-13T09:00:08;10.20;;;3.33;;
74808;SDS011;63338;39.544;2.596;2023-10-13T09:02:54;10.48;;;3.00;;
74808;SDS011;63338;39.544;2.596;2023-10-13T09:05:48;10.73;;;3.28;;
74808;SDS011;63338;39.544;2.596;2023-10-13T09:08:29;11.68;;;3.53;;
74808;SDS011;63338;39.544;2.596;2023-10-13T09:11:04;9.88;;;3.40;;
74808;SDS011;63338;39.544;2.596;2023-10-13T09:13:39;11.18;;;3.47;;
74808;SDS011;63338;39.544;2.596;2023-10-13T09:16:12;7.13;;;2.85;;
74808;SDS011;63338;39.544;2.596;2023-10-13T09:19:01;13.80;;;2.90;;
74808;SDS011;63338;39.544;2.596;2023-10-13T09:21:37;8.73;;;3.08;;
74808;SDS011;63338;39.544;2.596;2023-10-13T09:24:04;9.75;;;3.28;;
74808;SDS011;63338;39.544;2.596;2023-10-13T09:26:55;10.40;;;3.10;;
74808;SDS011;63338;39.544;2.596;2023-10-13T09:29:26;17.13;;;3.33;;
74808;SDS011;63338;39.544;2.596;2023-10-13T09:32:01;10.35;;;3.13;;
74808;SDS011;63338;39.544;2.596;2023-10-13T09:34:29;12.57;;;4.55;;
74808;SDS011;63338;39.544;2.596;2023-10-13T09:36:57;14.60;;;3.50;;
74808;SDS011;63338;39.544;2.596;2023-10-13T09:39:28;13.75;;;3.90;;
74808;SDS011;63338;39.544;2.596;2023-10-13T09:42:10;13.32;;;3.33;;
74808;SDS011;63338;39.544;2.596;2023-10-13T09:44:41;8.43;;;3.30;;
74808;SDS011;63338;39.544;2.596;2023-10-13T09:47:15;12.30;;;3.33;;
74808;SDS011;63338;39.544;2.596;2023-10-13T09:49:49;9.25;;;2.80;;
74808;SDS011;63338;39.544;2.596;2023-10-13T09:52:23;12.10;;;2.88;;
74808;SDS011;63338;39.544;2.596;2023-10-13T09:57:31;10.27;;;3.03;;
74808;SDS011;63338;39.544;2.596;2023-10-13T10:00:12;7.90;;;2.70;;
74808;SDS011;63338;39.544;2.596;2023-10-13T10:03:02;9.80;;;2.97;;
74808;SDS011;63338;39.544;2.596;2023-10-13T10:05:41;8.98;;;2.85;;
74808;SDS011;63338;39.544;2.596;2023-10-13T10:08:23;10.85;;;3.03;;
74808;SDS011;63338;39.544;2.596;2023-10-13T10:11:04;14.30;;;3.00;;
74808;SDS011;63338;39.544;2.596;2023-10-13T10:13:58;10.80;;;2.95;;
74808;SDS011;63338;39.544;2.596;2023-10-13T10:19:47;10.05;;;3.65;;
74808;SDS011;63338;39.544;2.596;2023-10-13T10:22:30;10.23;;;2.90;;
74808;SDS011;63338;39.544;2.596;2023-10-13T10:25:02;12.48;;;3.13;;
74808;SDS011;63338;39.544;2.596;2023-10-13T10:27:35;10.70;;;3.10;;
74808;SDS011;63338;39.544;2.596;2023-10-13T10:30:01;11.65;;;3.25;;
74808;SDS011;63338;39.544;2.596;2023-10-13T10:32:38;9.07;;;3.35;;
74808;SDS011;63338;39.544;2.596;2023-10-13T10:35:14;9.43;;;3.60;;
74808;SDS011;63338;39.544;2.596;2023-10-13T10:37:41;10.95;;;3.40;;
74808;SDS011;63338;39.544;2.596;2023-10-13T10:40:16;9.80;;;3.28;;
74808;SDS011;63338;39.544;2.596;2023-10-13T10:43:05;10.30;;;3.10;;
74808;SDS011;63338;39.544;2.596;2023-10-13T10:45:37;11.88;;;3.58;;
74808;SDS011;63338;39.544;2.596;2023-10-13T10:48:11;13.05;;;3.20;;
74808;SDS011;63338;39.544;2.596;2023-10-13T10:50:56;12.23;;;3.40;;
74808;SDS011;63338;39.544;2.596;2023-10-13T10:53:23;10.75;;;3.50;;
74808;SDS011;63338;39.544;2.596;2023-10-13T10:56:06;13.32;;;3.58;;
74808;SDS011;63338;39.544;2.596;2023-10-13T10:58:46;12.20;;;3.45;;
74808;SDS011;63338;39.544;2.596;2023-10-13T11:01:22;10.95;;;4.10;;
74808;SDS011;63338;39.544;2.596;2023-10-13T11:03:57;9.38;;;3.33;;
74808;SDS011;63338;39.544;2.596;2023-10-13T11:06:44;12.02;;;3.60;;
74808;SDS011;63338;39.544;2.596;2023-10-13T11:09:27;10.45;;;3.33;;
74808;SDS011;63338;39.544;2.596;2023-10-13T11:12:08;11.13;;;3.28;;
74808;SDS011;63338;39.544;2.596;2023-10-13T11:17:50;12.10;;;3.50;;
74808;SDS011;63338;39.544;2.596;2023-10-13T11:20:22;10.18;;;3.33;;
74808;SDS011;63338;39.544;2.596;2023-10-13T11:22:51;10.82;;;3.80;;
74808;SDS011;63338;39.544;2.596;2023-10-13T11:25:24;11.25;;;3.33;;
74808;SDS011;63338;39.544;2.596;2023-10-13T11:28:09;13.18;;;3.63;;
74808;SDS011;63338;39.544;2.596;2023-10-13T11:30:55;11.40;;;3.53;;
74808;SDS011;63338;39.544;2.596;2023-10-13T11:33:24;10.88;;;3.05;;
74808;SDS011;63338;39.544;2.596;2023-10-13T11:35:54;9.48;;;3.65;;
74808;SDS011;63338;39.544;2.596;2023-10-13T11:38:22;10.30;;;3.50;;
74808;SDS011;63338;39.544;2.596;2023-10-13T11:40:53;11.65;;;3.42;;
74808;SDS011;63338;39.544;2.596;2023-10-13T11:46:22;9.20;;;3.55;;
74808;SDS011;63338;39.544;2.596;2023-10-13T11:49:02;10.65;;;3.58;;
74808;SDS011;63338;39.544;2.596;2023-10-13T11:51:52;10.18;;;3.05;;
74808;SDS011;63338;39.544;2.596;2023-10-13T11:54:27;6.57;;;3.15;;
74808;SDS011;63338;39.544;2.596;2023-10-13T11:56:53;12.00;;;3.42;;
74808;SDS011;63338;39.544;2.596;2023-10-13T11:59:23;13.00;;;3.58;;
74808;SDS011;63338;39.544;2.596;2023-10-13T12:01:52;11.63;;;3.30;;
74808;SDS011;63338;39.544;2.596;2023-10-13T12:04:38;12.70;;;3.53;;
74808;SDS011;63338;39.544;2.596;2023-10-13T12:07:07;9.50;;;3.33;;
74808;SDS011;63338;39.544;2.596;2023-10-13T12:09:36;13.30;;;3.05;;
74808;SDS011;63338;39.544;2.596;2023-10-13T12:12:21;9.25;;;3.15;;
74808;SDS011;63338;39.544;2.596;2023-10-13T12:14:47;12.45;;;3.75;;
74808;SDS011;63338;39.544;2.596;2023-10-13T12:17:34;12.07;;;3.90;;
74808;SDS011;63338;39.544;2.596;2023-10-13T12:20:01;11.82;;;3.72;;
74808;SDS011;63338;39.544;2.596;2023-10-13T12:22:30;8.20;;;3.55;;
74808;SDS011;63338;39.544;2.596;2023-10-13T12:25:08;7.97;;;3.30;;
74808;SDS011;63338;39.544;2.596;2023-10-13T12:27:53;9.20;;;3.50;;
74808;SDS011;63338;39.544;2.596;2023-10-13T12:30:23;9.45;;;3.90;;
74808;SDS011;63338;39.544;2.596;2023-10-13T12:33:13;11.68;;;3.97;;
74808;SDS011;63338;39.544;2.596;2023-10-13T12:35:55;11.88;;;3.88;;
74808;SDS011;63338;39.544;2.596;2023-10-13T12:38:56;10.63;;;3.75;;
74808;SDS011;63338;39.544;2.596;2023-10-13T12:41:33;7.90;;;3.72;;
74808;SDS011;63338;39.544;2.596;2023-10-13T12:44:18;14.43;;;4.50;;
74808;SDS011;63338;39.544;2.596;2023-10-13T12:47:03;10.27;;;3.85;;
74808;SDS011;63338;39.544;2.596;2023-10-13T12:49:47;10.80;;;4.00;;
74808;SDS011;63338;39.544;2.596;2023-10-13T12:52:13;14.95;;;4.00;;
74808;SDS011;63338;39.544;2.596;2023-10-13T12:54:50;14.73;;;4.30;;
74808;SDS011;63338;39.544;2.596;2023-10-13T12:57:29;13.85;;;4.35;;
74808;SDS011;63338;39.544;2.596;2023-10-13T12:59:57;10.73;;;3.97;;
74808;SDS011;63338;39.544;2.596;2023-10-13T13:02:24;10.50;;;3.90;;
74808;SDS011;63338;39.544;2.596;2023-10-13T13:04:51;10.90;;;4.40;;
74808;SDS011;63338;39.544;2.596;2023-10-13T13:07:44;12.27;;;4.10;;
74808;SDS011;63338;39.544;2.596;2023-10-13T13:10:18;11.73;;;3.88;;
74808;SDS011;63338;39.544;2.596;2023-10-13T13:12:45;11.13;;;3.97;;
74808;SDS011;63338;39.544;2.596;2023-10-13T13:15:11;13.32;;;4.30;;
74808;SDS011;63338;39.544;2.596;2023-10-13T13:17:40;18.20;;;4.45;;
74808;SDS011;63338;39.544;2.596;2023-10-13T13:20:06;13.20;;;3.80;;
74808;SDS011;63338;39.544;2.596;2023-10-13T13:22:52;10.48;;;3.90;;
74808;SDS011;63338;39.544;2.596;2023-10-13T13:25:19;13.68;;;5.13;;
74808;SDS011;63338;39.544;2.596;2023-10-13T13:27:54;11.25;;;4.13;;
74808;SDS011;63338;39.544;2.596;2023-10-13T13:30:20;11.27;;;3.97;;
74808;SDS011;63338;39.544;2.596;2023-10-13T13:32:47;11.75;;;4.63;;
74808;SDS011;63338;39.544;2.596;2023-10-13T13:35:13;11.77;;;3.90;;
74808;SDS011;63338;39.544;2.596;2023-10-13T13:37:41;15.00;;;4.20;;
74808;SDS011;63338;39.544;2.596;2023-10-13T13:40:09;7.43;;;3.40;;
74808;SDS011;63338;39.544;2.596;2023-10-13T13:42:44;11.98;;;4.13;;
74808;SDS011;63338;39.544;2.596;2023-10-13T13:45:17;14.60;;;4.20;;
74808;SDS011;63338;39.544;2.596;2023-10-13T13:47:50;8.20;;;3.80;;
74808;SDS011;63338;39.544;2.596;2023-10-13T13:50:37;13.77;;;4.32;;
74808;SDS011;63338;39.544;2.596;2023-10-13T13:53:09;9.02;;;3.53;;
74808;SDS011;63338;39.544;2.596;2023-10-13T13:55:36;11.35;;;3.58;;
74808;SDS011;63338;39.544;2.596;2023-10-13T13:58:05;9.50;;;3.63;;
74808;SDS011;63338;39.544;2.596;2023-10-13T14:00:33;11.50;;;3.92;;
74808;SDS011;63338;39.544;2.596;2023-10-13T14:03:06;10.65;;;3.70;;
74808;SDS011;63338;39.544;2.596;2023-10-13T14:05:43;11.38;;;4.00;;
74808;SDS011;63338;39.544;2.596;2023-10-13T14:08:10;13.27;;;4.00;;
74808;SDS011;63338;39.544;2.596;2023-10-13T14:10:43;16.23;;;3.83;;
74808;SDS011;63338;39.544;2.596;2023-10-13T14:13:27;10.98;;;3.63;;
74808;SDS011;63338;39.544;2.596;2023-10-13T14:16:17;8.02;;;3.65;;
74808;SDS011;63338;39.544;2.596;2023-10-13T14:18:50;10.82;;;3.70;;
74808;SDS011;63338;39.544;2.596;2023-10-13T14:21:19;9.50;;;3.53;;
74808;SDS011;63338;39.544;2.596;2023-10-13T14:23:50;7.20;;;3.47;;
74808;SDS011;63338;39.544;2.596;2023-10-13T14:26:19;14.82;;;3.78;;
74808;SDS011;63338;39.544;2.596;2023-10-13T14:28:53;8.48;;;3.83;;
74808;SDS011;63338;39.544;2.596;2023-10-13T14:31:33;7.95;;;3.40;;
74808;SDS011;63338;39.544;2.596;2023-10-13T14:34:04;8.77;;;3.40;;
74808;SDS011;63338;39.544;2.596;2023-10-13T14:36:32;10.15;;;3.25;;
74808;SDS011;63338;39.544;2.596;2023-10-13T14:39:07;7.80;;;3.15;;
74808;SDS011;63338;39.544;2.596;2023-10-13T14:41:37;14.50;;;3.38;;
74808;SDS011;63338;39.544;2.596;2023-10-13T14:44:03;11.82;;;3.72;;
74808;SDS011;63338;39.544;2.596;2023-10-13T14:46:32;13.45;;;4.15;;
74808;SDS011;63338;39.544;2.596;2023-10-13T14:49:04;9.77;;;3.45;;
74808;SDS011;63338;39.544;2.596;2023-10-13T14:51:31;8.45;;;3.90;;
74808;SDS011;63338;39.544;2.596;2023-10-13T14:53:58;9.88;;;3.47;;
74808;SDS011;63338;39.544;2.596;2023-10-13T14:56:29;9.40;;;3.72;;
74808;SDS011;63338;39.544;2.596;2023-10-13T14:58:56;15.57;;;4.15;;
74808;SDS011;63338;39.544;2.596;2023-10-13T15:01:22;10.32;;;3.42;;
74808;SDS011;63338;39.544;2.596;2023-10-13T15:03:52;9.23;;;4.10;;
74808;SDS011;63338;39.544;2.596;2023-10-13T15:06:22;10.05;;;3.00;;
74808;SDS011;63338;39.544;2.596;2023-10-13T15:08:57;7.70;;;3.35;;
74808;SDS011;63338;39.544;2.596;2023-10-13T15:11:25;8.18;;;3.50;;
74808;SDS011;63338;39.544;2.596;2023-10-13T15:14:01;11.45;;;3.50;;
74808;SDS011;63338;39.544;2.596;2023-10-13T15:16:29;8.93;;;3.72;;
74808;SDS011;63338;39.544;2.596;2023-10-13T15:18:55;8.75;;;3.50;;
74808;SDS011;63338;39.544;2.596;2023-10-13T15:21:21;9.05;;;3.53;;
74808;SDS011;63338;39.544;2.596;2023-10-13T15:23:52;9.60;;;3.63;;
74808;SDS011;63338;39.544;2.596;2023-10-13T15:26:19;8.60;;;3.55;;
74808;SDS011;63338;39.544;2.596;2023-10-13T15:28:47;5.60;;;3.28;;
74808;SDS011;63338;39.544;2.596;2023-10-13T15:31:25;9.45;;;3.75;;
74808;SDS011;63338;39.544;2.596;2023-10-13T15:33:54;7.30;;;3.53;;
74808;SDS011;63338;39.544;2.596;2023-10-13T15:36:22;11.15;;;3.65;;
74808;SDS011;63338;39.544;2.596;2023-10-13T15:38:51;11.15;;;3.58;;
74808;SDS011;63338;39.544;2.596;2023-10-13T15:41:27;7.18;;;3.50;;